Time;durP1;ratioP1;P1;durP2;ratioP2;P2;SDS_P1;SDS_P2;PMS_P1;PMS_P2;Temp;Humidity;BMP_temperature;BMP_pressure;BME280_temperature;BME280_humidity;BME280_pressure;Samples;Min_cycle;Max_cycle;Signal;HPM_P1;HPM_P2
2023/09/16 00:00:32;;;;;;;;;;;20.60;64.30;;;;;;5109656;28;19973;-71
2023/09/16 00:02:57;;;;;;;;;;;20.60;64.30;;;;;;5092872;28;19927;-71
2023/09/16 00:05:23;;;;;;;;;;;20.60;64.30;;;;;;5092732;28;19924;-71
2023/09/16 00:07:48;;;;;;;;;;;20.60;64.30;;;;;;5109486;28;19926;-71
2023/09/16 00:10:14;;;;;;;;;;;20.50;64.30;;;;;;5094095;28;20061;-71
2023/09/16 00:12:39;;;;;;;;;;;20.60;64.40;;;;;;5092464;28;20399;-71
2023/09/16 00:15:06;;;;;;;;;;;20.50;64.20;;;;;;5092282;28;20018;-71
2023/09/16 00:17:33;;;;;;;;;;;20.50;64.20;;;;;;5106564;28;19943;-71
2023/09/16 00:19:58;;;;;;;;;;;20.50;64.20;;;;;;5113879;28;20014;-71
2023/09/16 00:22:24;;;;;;;;;;;20.50;64.20;;;;;;5112926;28;20022;-71
2023/09/16 00:24:49;;;;;;;;;;;20.50;64.20;;;;;;5112533;28;19999;-71
2023/09/16 00:27:15;;;;;;;;;;;20.50;64.20;;;;;;5113705;28;19965;-71
2023/09/16 00:29:41;;;;;;;;;;;20.50;64.20;;;;;;5113885;28;19919;-71
2023/09/16 00:32:06;;;;;;;;;;;20.50;64.20;;;;;;5112417;28;19923;-71
2023/09/16 00:34:32;;;;;;;;;;;20.50;64.20;;;;;;5112739;28;19919;-71
2023/09/16 00:36:57;;;;;;;;;;;20.50;64.30;;;;;;5113642;28;19924;-71
2023/09/16 00:39:23;;;;;;;;;;;20.50;64.20;;;;;;5113528;28;19963;-71
2023/09/16 00:41:50;;;;;;;;;;;20.50;64.30;;;;;;5113664;28;20329;-70
2023/09/16 00:44:15;;;;;;;;;;;20.50;64.30;;;;;;5112329;28;19920;-71
2023/09/16 00:46:40;;;;;;;;;;;20.50;64.30;;;;;;5112125;28;19927;-71
2023/09/16 00:49:06;;;;;;;;;;;20.50;64.20;;;;;;5112216;28;20452;-71
2023/09/16 00:51:32;;;;;;;;;;;20.50;64.20;;;;;;5113372;28;19919;-71
2023/09/16 00:53:59;;;;;;;;;;;20.50;64.20;;;;;;5112343;28;19959;-71
2023/09/16 00:56:27;;;;;;;;;;;20.50;64.20;;;;;;5113252;28;19920;-71
2023/09/16 00:58:54;;;;;;;;;;;20.40;64.20;;;;;;5113320;28;19923;-71
2023/09/16 01:01:22;;;;;;;;;;;20.50;64.30;;;;;;5113201;28;19953;-71
2023/09/16 01:03:48;;;;;;;;;;;20.50;64.30;;;;;;5112308;28;19926;-71
2023/09/16 01:06:16;;;;;;;;;;;20.50;64.30;;;;;;5111844;28;19921;-71
2023/09/16 01:08:44;;;;;;;;;;;20.40;64.20;;;;;;5112048;28;20282;-71
2023/09/16 01:11:10;;;;;;;;;;;20.40;64.20;;;;;;5112162;28;20496;-71
2023/09/16 01:13:37;;;;;;;;;;;20.40;64.20;;;;;;5113090;28;19927;-71
2023/09/16 01:16:22;;;;;;;;;;;20.40;64.20;;;;;;5110383;28;19919;-70
2023/09/16 01:18:51;;;;;;;;;;;20.40;64.20;;;;;;5091391;28;19920;-70
2023/09/16 01:21:17;;;;;;;;;;;20.40;64.20;;;;;;5092532;28;19924;-70
2023/09/16 01:23:44;;;;;;;;;;;20.40;64.10;;;;;;5091243;28;20360;-70
2023/09/16 01:26:09;;;;;;;;;;;20.40;64.20;;;;;;5090947;28;20019;-70
2023/09/16 01:28:37;;;;;;;;;;;20.40;64.20;;;;;;5090636;28;21276;-70
2023/09/16 01:31:05;;;;;;;;;;;20.40;64.20;;;;;;5091602;28;19990;-70
2023/09/16 01:36:13;;;;;;;;;;;20.40;64.20;;;;;;5110310;27;19912;-70
2023/09/16 01:38:40;;;;;;;;;;;20.40;64.20;;;;;;5109084;28;19920;-70
2023/09/16 01:41:07;;;;;;;;;;;20.30;64.10;;;;;;5109249;28;20299;-70
2023/09/16 01:43:33;;;;;;;;;;;20.40;64.20;;;;;;5108820;28;19930;-70
2023/09/16 01:45:59;;;;;;;;;;;20.30;64.10;;;;;;5108893;28;19951;-70
2023/09/16 01:48:24;;;;;;;;;;;20.30;64.10;;;;;;5109026;28;19978;-70
2023/09/16 01:50:50;;;;;;;;;;;20.30;64.10;;;;;;5108615;28;20373;-70
2023/09/16 01:53:16;;;;;;;;;;;20.40;64.20;;;;;;5108994;28;19927;-70
2023/09/16 01:55:41;;;;;;;;;;;20.30;64.10;;;;;;5108587;28;19973;-70
2023/09/16 01:58:08;;;;;;;;;;;20.30;64.10;;;;;;5108838;28;19924;-70
2023/09/16 02:00:34;;;;;;;;;;;20.30;64.10;;;;;;5109936;28;19923;-70
2023/09/16 02:02:59;;;;;;;;;;;20.30;64.10;;;;;;5108772;28;19998;-70
2023/09/16 02:05:25;;;;;;;;;;;20.30;64.10;;;;;;5109630;28;20069;-70
2023/09/16 02:07:51;;;;;;;;;;;20.30;64.10;;;;;;5108449;28;19927;-70
2023/09/16 02:10:16;;;;;;;;;;;20.30;64.10;;;;;;5109614;28;19935;-70
2023/09/16 02:12:42;;;;;;;;;;;20.30;64.20;;;;;;5108408;28;20022;-70
2023/09/16 02:15:09;;;;;;;;;;;20.30;64.20;;;;;;5108261;28;19947;-70
2023/09/16 02:17:39;;;;;;;;;;;20.20;64.10;;;;;;5108230;28;19927;-70
2023/09/16 02:20:08;;;;;;;;;;;20.30;64.20;;;;;;5109379;28;20388;-70
2023/09/16 02:22:33;;;;;;;;;;;20.30;64.20;;;;;;5108508;28;20394;-70
2023/09/16 02:24:59;;;;;;;;;;;20.30;64.20;;;;;;5108055;28;19967;-70
2023/09/16 02:27:24;;;;;;;;;;;20.30;64.20;;;;;;5108352;28;19927;-70
2023/09/16 02:29:50;;;;;;;;;;;20.30;64.20;;;;;;5108262;28;19978;-70
2023/09/16 02:32:15;;;;;;;;;;;20.30;64.30;;;;;;5108034;28;20426;-70
2023/09/16 02:34:41;;;;;;;;;;;20.30;64.30;;;;;;5107637;28;20016;-74
2023/09/16 02:37:06;;;;;;;;;;;20.30;64.20;;;;;;5107847;28;19920;-70
2023/09/16 02:39:32;;;;;;;;;;;20.20;64.20;;;;;;5107682;28;19931;-70
2023/09/16 02:41:57;;;;;;;;;;;20.30;64.30;;;;;;5109489;28;20252;-74
2023/09/16 02:44:23;;;;;;;;;;;20.20;64.20;;;;;;5107797;28;20022;-75
2023/09/16 02:46:48;;;;;;;;;;;20.20;64.20;;;;;;5098259;28;20007;-70
2023/09/16 02:49:14;;;;;;;;;;;20.20;64.20;;;;;;5094178;28;20452;-70
2023/09/16 02:51:39;;;;;;;;;;;20.20;64.20;;;;;;5095189;28;19920;-70
2023/09/16 02:54:06;;;;;;;;;;;20.20;64.20;;;;;;5094284;28;19931;-70
2023/09/16 02:56:32;;;;;;;;;;;20.20;64.20;;;;;;5093982;28;19963;-70
2023/09/16 02:58:57;;;;;;;;;;;20.20;64.20;;;;;;5094037;28;19970;-70
2023/09/16 03:01:23;;;;;;;;;;;20.20;64.20;;;;;;5094085;28;19931;-70
2023/09/16 03:03:48;;;;;;;;;;;20.20;64.20;;;;;;5094050;28;19920;-70
2023/09/16 03:06:14;;;;;;;;;;;20.20;64.30;;;;;;5094974;28;20299;-70
2023/09/16 03:08:39;;;;;;;;;;;20.20;64.20;;;;;;5095027;28;19920;-70
2023/09/16 03:11:05;;;;;;;;;;;20.20;64.20;;;;;;5093924;28;19983;-70
2023/09/16 03:13:31;;;;;;;;;;;20.20;64.20;;;;;;5093548;28;19920;-70
2023/09/16 03:16:11;;;;;;;;;;;20.20;64.20;;;;;;5093406;28;19935;-70
2023/09/16 03:18:36;;;;;;;;;;;20.20;64.20;;;;;;5093802;28;20295;-70
2023/09/16 03:21:02;;;;;;;;;;;20.20;64.30;;;;;;5094713;28;19946;-74
2023/09/16 03:23:28;;;;;;;;;;;20.20;64.30;;;;;;5093720;28;19943;-70
2023/09/16 03:25:53;;;;;;;;;;;20.10;64.20;;;;;;5093274;28;19920;-70
2023/09/16 03:28:19;;;;;;;;;;;20.20;64.30;;;;;;5093410;28;19920;-70
2023/09/16 03:30:44;;;;;;;;;;;20.20;64.30;;;;;;5093258;28;19973;-69
2023/09/16 03:33:09;;;;;;;;;;;20.10;64.20;;;;;;5093557;28;19920;-70
2023/09/16 03:35:36;;;;;;;;;;;20.10;64.20;;;;;;5094138;28;20386;-70
2023/09/16 03:38:01;;;;;;;;;;;20.10;64.10;;;;;;5093366;28;19942;-70
2023/09/16 03:40:28;;;;;;;;;;;20.10;64.20;;;;;;5093064;28;19920;-70
2023/09/16 03:42:54;;;;;;;;;;;20.10;64.20;;;;;;5093264;28;20469;-69
2023/09/16 03:45:19;;;;;;;;;;;20.10;64.20;;;;;;5093039;28;19920;-69
2023/09/16 03:47:45;;;;;;;;;;;20.10;64.20;;;;;;5092897;28;19927;-70
2023/09/16 03:50:10;;;;;;;;;;;20.10;64.10;;;;;;5094217;28;19924;-70
2023/09/16 03:52:36;;;;;;;;;;;20.10;64.20;;;;;;5093023;28;19920;-70
2023/09/16 03:55:02;;;;;;;;;;;20.10;64.20;;;;;;5092809;28;20368;-70
2023/09/16 03:57:28;;;;;;;;;;;20.10;64.10;;;;;;5092234;28;19927;-70
2023/09/16 03:59:53;;;;;;;;;;;20.10;64.10;;;;;;5093866;28;19920;-70
2023/09/16 04:02:19;;;;;;;;;;;20.10;64.10;;;;;;5092853;28;19920;-70
2023/09/16 04:04:44;;;;;;;;;;;20.10;64.10;;;;;;5092900;28;19943;-70
2023/09/16 04:07:10;;;;;;;;;;;20.10;64.10;;;;;;5092845;28;19920;-70
2023/09/16 04:09:35;;;;;;;;;;;20.10;64.10;;;;;;5092742;28;19959;-70
2023/09/16 04:12:02;;;;;;;;;;;20.00;64.00;;;;;;5092753;28;19920;-69
2023/09/16 04:14:28;;;;;;;;;;;20.10;64.20;;;;;;5092441;28;19928;-70
2023/09/16 04:16:53;;;;;;;;;;;20.00;64.10;;;;;;5092591;28;20383;-70
2023/09/16 04:19:19;;;;;;;;;;;20.00;64.00;;;;;;5092264;28;19920;-70
2023/09/16 04:21:46;;;;;;;;;;;20.00;64.00;;;;;;5092318;28;19920;-70
2023/09/16 04:24:12;;;;;;;;;;;20.00;64.00;;;;;;5092470;28;19924;-70
2023/09/16 04:26:37;;;;;;;;;;;20.00;64.10;;;;;;5093412;28;20035;-70
2023/09/16 04:29:03;;;;;;;;;;;20.00;64.00;;;;;;5092359;28;19924;-70
2023/09/16 04:31:30;;;;;;;;;;;20.00;64.00;;;;;;5092148;28;19926;-70
2023/09/16 04:33:55;;;;;;;;;;;20.00;64.00;;;;;;5092985;28;19919;-69
2023/09/16 04:36:22;;;;;;;;;;;19.90;63.90;;;;;;5093301;28;19932;-70
2023/09/16 04:38:48;;;;;;;;;;;20.00;64.00;;;;;;5092989;28;20002;-70
2023/09/16 04:41:14;;;;;;;;;;;20.00;64.00;;;;;;5091970;28;20294;-70
2023/09/16 04:43:40;;;;;;;;;;;20.00;64.80;;;;;;5092119;28;19920;-70
2023/09/16 04:46:05;;;;;;;;;;;20.00;64.00;;;;;;5092144;28;19920;-70
2023/09/16 04:48:31;;;;;;;;;;;20.00;64.00;;;;;;5093083;28;20386;-70
2023/09/16 04:50:56;;;;;;;;;;;19.90;63.90;;;;;;5092949;28;20015;-70
2023/09/16 04:53:22;;;;;;;;;;;19.90;63.90;;;;;;5091958;28;19928;-70
2023/09/16 04:55:47;;;;;;;;;;;19.90;63.90;;;;;;5091798;28;19919;-70
2023/09/16 04:58:13;;;;;;;;;;;19.90;63.90;;;;;;5093047;28;19928;-69
2023/09/16 05:00:38;;;;;;;;;;;19.90;63.90;;;;;;5091527;28;20010;-70
2023/09/16 05:03:04;;;;;;;;;;;19.90;63.90;;;;;;5092880;28;19968;-70
2023/09/16 05:05:29;;;;;;;;;;;19.90;63.90;;;;;;5091771;28;19924;-70
2023/09/16 05:07:55;;;;;;;;;;;19.90;63.90;;;;;;5091781;28;20354;-70
2023/09/16 05:10:21;;;;;;;;;;;19.90;63.90;;;;;;5091456;28;19926;-70
2023/09/16 05:12:47;;;;;;;;;;;19.90;63.90;;;;;;5092929;28;19927;-70
2023/09/16 05:15:12;;;;;;;;;;;19.90;63.90;;;;;;5091312;28;19950;-70
2023/09/16 05:17:38;;;;;;;;;;;19.90;63.90;;;;;;5091658;28;19924;-70
2023/09/16 05:20:04;;;;;;;;;;;19.90;63.90;;;;;;5091270;28;19927;-70
2023/09/16 05:22:30;;;;;;;;;;;19.90;63.90;;;;;;5074794;28;20302;-70
2023/09/16 05:24:55;;;;;;;;;;;19.90;63.90;;;;;;5092398;28;19920;-74
2023/09/16 05:27:21;;;;;;;;;;;19.80;63.90;;;;;;5091242;28;19920;-70
2023/09/16 05:29:48;;;;;;;;;;;19.90;63.90;;;;;;5092679;28;19920;-70
2023/09/16 05:32:13;;;;;;;;;;;19.80;63.80;;;;;;5091483;28;20278;-73
2023/09/16 05:34:39;;;;;;;;;;;19.90;63.90;;;;;;5092243;28;19924;-70
2023/09/16 05:37:04;;;;;;;;;;;19.80;63.80;;;;;;5091155;28;19927;-70
2023/09/16 05:39:30;;;;;;;;;;;19.80;63.80;;;;;;5092362;28;20019;-70
2023/09/16 05:41:55;;;;;;;;;;;19.90;63.90;;;;;;5091332;28;19920;-69
2023/09/16 05:44:21;;;;;;;;;;;19.80;63.80;;;;;;5091172;28;19971;-70
2023/09/16 05:46:47;;;;;;;;;;;19.80;63.80;;;;;;5091027;28;19965;-69
2023/09/16 05:49:13;;;;;;;;;;;19.80;63.80;;;;;;5091150;28;19924;-70
2023/09/16 05:51:38;;;;;;;;;;;19.80;63.80;;;;;;5091245;28;19926;-70
2023/09/16 05:54:04;;;;;;;;;;;19.80;63.80;;;;;;5091218;28;19920;-70
2023/09/16 05:56:30;;;;;;;;;;;19.80;63.80;;;;;;5090917;28;19924;-70
2023/09/16 05:58:55;;;;;;;;;;;19.80;63.90;;;;;;5092397;28;20036;-70
2023/09/16 06:01:21;;;;;;;;;;;19.80;63.90;;;;;;5092211;28;19971;-70
2023/09/16 06:03:46;;;;;;;;;;;19.80;63.80;;;;;;5091181;28;19927;-70
2023/09/16 06:06:12;;;;;;;;;;;19.80;63.90;;;;;;5091188;28;20417;-70
2023/09/16 06:08:37;;;;;;;;;;;19.80;63.90;;;;;;5090964;28;20014;-70
2023/09/16 06:11:03;;;;;;;;;;;19.80;63.90;;;;;;5090847;28;19924;-74
2023/09/16 06:13:29;;;;;;;;;;;19.80;63.90;;;;;;5092087;28;19959;-70
2023/09/16 06:15:54;;;;;;;;;;;19.80;63.90;;;;;;5090770;28;20011;-74
2023/09/16 06:18:20;;;;;;;;;;;19.80;63.90;;;;;;5092046;28;19971;-70
2023/09/16 06:20:46;;;;;;;;;;;19.80;63.90;;;;;;5091473;28;19921;-70
2023/09/16 06:23:11;;;;;;;;;;;19.80;63.90;;;;;;5094546;28;19969;-70
2023/09/16 06:25:38;;;;;;;;;;;19.80;63.90;;;;;;5094786;28;19927;-70
2023/09/16 06:28:04;;;;;;;;;;;19.80;63.90;;;;;;5094458;28;19920;-70
2023/09/16 06:30:29;;;;;;;;;;;19.80;63.90;;;;;;5095957;28;19973;-70
2023/09/16 06:32:55;;;;;;;;;;;19.70;63.90;;;;;;5094384;28;19920;-70
2023/09/16 06:35:21;;;;;;;;;;;19.80;64.00;;;;;;5094047;28;19925;-70
2023/09/16 06:37:46;;;;;;;;;;;19.80;64.70;;;;;;5092884;28;19968;-68
2023/09/16 06:40:12;;;;;;;;;;;19.80;64.00;;;;;;5091425;28;19973;-69
2023/09/16 06:42:37;;;;;;;;;;;19.80;64.00;;;;;;5091222;28;19920;-71
2023/09/16 06:45:03;;;;;;;;;;;19.80;63.90;;;;;;5091855;28;19928;-69
2023/09/16 06:47:29;;;;;;;;;;;19.80;63.80;;;;;;5092974;28;20395;-67
2023/09/16 06:49:56;;;;;;;;;;;19.90;63.90;;;;;;5093719;28;20398;-68
2023/09/16 06:52:22;;;;;;;;;;;19.90;63.90;;;;;;5094104;28;19920;-73
2023/09/16 06:54:49;;;;;;;;;;;19.90;63.90;;;;;;5092881;28;20276;-71
2023/09/16 06:57:15;;;;;;;;;;;20.00;63.90;;;;;;5094279;28;19920;-72
2023/09/16 06:59:40;;;;;;;;;;;20.00;63.90;;;;;;5094096;28;19926;-70
2023/09/16 07:02:06;;;;;;;;;;;20.00;63.80;;;;;;5092664;28;19920;-69
2023/09/16 07:04:31;;;;;;;;;;;20.00;63.60;;;;;;5094402;28;19920;-71
2023/09/16 07:06:57;;;;;;;;;;;20.00;63.50;;;;;;5097393;28;19924;-69
2023/09/16 07:09:22;;;;;;;;;;;20.10;63.60;;;;;;5113663;28;19929;-70
2023/09/16 07:11:48;;;;;;;;;;;20.10;63.50;;;;;;5098258;28;19966;-69
2023/09/16 07:14:13;;;;;;;;;;;20.10;63.50;;;;;;5094132;28;20036;-68
2023/09/16 07:16:40;;;;;;;;;;;20.10;63.60;;;;;;5093661;28;19920;-68
2023/09/16 07:19:06;;;;;;;;;;;20.20;63.60;;;;;;5092196;28;20394;-70
2023/09/16 07:21:32;;;;;;;;;;;20.20;63.60;;;;;;5093494;28;20291;-68
2023/09/16 07:24:00;;;;;;;;;;;20.20;63.60;;;;;;5092908;28;19924;-67
2023/09/16 07:26:27;;;;;;;;;;;20.20;63.60;;;;;;5093324;28;19920;-69
2023/09/16 07:28:52;;;;;;;;;;;20.20;63.60;;;;;;5092641;28;19924;-69
2023/09/16 07:31:18;;;;;;;;;;;20.20;63.70;;;;;;5093007;28;20299;-68
2023/09/16 07:33:45;;;;;;;;;;;20.30;63.70;;;;;;5094009;28;19990;-67
2023/09/16 07:36:10;;;;;;;;;;;20.20;63.70;;;;;;5092925;28;19924;-68
2023/09/16 07:38:36;;;;;;;;;;;20.20;63.70;;;;;;5091733;28;19920;-68
2023/09/16 07:41:01;;;;;;;;;;;20.30;63.80;;;;;;5094292;28;20275;-68
2023/09/16 07:43:27;;;;;;;;;;;20.20;63.70;;;;;;5092619;28;19969;-66
2023/09/16 07:45:52;;;;;;;;;;;20.30;63.70;;;;;;5093279;28;20018;-73
2023/09/16 07:48:18;;;;;;;;;;;20.30;63.80;;;;;;5093108;28;19981;-70
2023/09/16 07:50:44;;;;;;;;;;;20.30;63.80;;;;;;5094320;28;19920;-69
2023/09/16 07:53:09;;;;;;;;;;;20.30;63.80;;;;;;5094334;28;19924;-68
2023/09/16 07:55:35;;;;;;;;;;;20.30;63.70;;;;;;5108883;28;20383;-68
2023/09/16 07:58:00;;;;;;;;;;;20.30;63.70;;;;;;5108079;28;19920;-67
2023/09/16 08:00:26;;;;;;;;;;;20.30;63.70;;;;;;5092229;28;20372;-68
2023/09/16 08:02:51;;;;;;;;;;;20.30;63.70;;;;;;5093621;28;20027;-68
2023/09/16 08:05:17;;;;;;;;;;;20.40;63.80;;;;;;5093104;28;20410;-69
2023/09/16 08:07:42;;;;;;;;;;;20.40;63.70;;;;;;5091852;28;20049;-69
2023/09/16 08:10:08;;;;;;;;;;;20.40;63.70;;;;;;5091423;28;19920;-70
2023/09/16 08:12:33;;;;;;;;;;;20.40;63.70;;;;;;5093038;28;19966;-70
2023/09/16 08:15:01;;;;;;;;;;;20.30;63.70;;;;;;5092443;28;19928;-69
2023/09/16 08:17:26;;;;;;;;;;;20.40;63.80;;;;;;5092069;28;20005;-69
2023/09/16 08:19:52;;;;;;;;;;;20.40;63.80;;;;;;5091082;28;20427;-69
2023/09/16 08:22:17;;;;;;;;;;;20.40;63.80;;;;;;5091865;28;19927;-69
2023/09/16 08:24:43;;;;;;;;;;;20.40;63.80;;;;;;5093018;28;20049;-70
2023/09/16 08:27:08;;;;;;;;;;;20.40;63.80;;;;;;5091280;28;19928;-70
2023/09/16 08:29:34;;;;;;;;;;;20.40;63.80;;;;;;5091456;28;19927;-69
2023/09/16 08:31:59;;;;;;;;;;;20.40;63.80;;;;;;5092611;28;19920;-69
2023/09/16 08:34:25;;;;;;;;;;;20.50;63.90;;;;;;5091121;28;20422;-73
2023/09/16 08:36:50;;;;;;;;;;;20.40;63.90;;;;;;5093150;28;19920;-68
2023/09/16 08:39:16;;;;;;;;;;;20.40;63.90;;;;;;5092542;28;19950;-70
2023/09/16 08:44:29;;;;;;;;;;;20.50;64.00;;;;;;5110097;27;19918;-74
2023/09/16 08:46:58;;;;;;;;;;;20.50;64.00;;;;;;5109213;28;19971;-68
2023/09/16 08:49:24;;;;;;;;;;;20.50;64.00;;;;;;5108351;28;19927;-70
2023/09/16 08:51:51;;;;;;;;;;;20.50;64.00;;;;;;5109031;28;19924;-68
2023/09/16 08:54:18;;;;;;;;;;;20.50;64.00;;;;;;5110013;28;19920;-68
2023/09/16 08:56:44;;;;;;;;;;;20.50;64.00;;;;;;5108341;28;20386;-70
2023/09/16 08:59:10;;;;;;;;;;;20.50;64.00;;;;;;5108208;28;20408;-69
2023/09/16 09:01:35;;;;;;;;;;;20.60;63.90;;;;;;5107837;28;19928;-69
2023/09/16 09:04:01;;;;;;;;;;;20.60;64.70;;;;;;5105616;28;20334;-71
2023/09/16 09:06:27;;;;;;;;;;;20.60;63.90;;;;;;5109897;28;19926;-71
2023/09/16 09:08:52;;;;;;;;;;;20.70;63.90;;;;;;5108260;28;19924;-69
2023/09/16 09:11:18;;;;;;;;;;;20.70;63.90;;;;;;5109416;28;20877;-75
2023/09/16 09:13:45;;;;;;;;;;;20.70;63.90;;;;;;5109755;28;19923;-70
2023/09/16 09:16:12;;;;;;;;;;;20.70;63.90;;;;;;5106464;28;19927;-70
2023/09/16 09:18:38;;;;;;;;;;;20.70;63.90;;;;;;5104501;28;19920;-69
2023/09/16 09:21:04;;;;;;;;;;;20.70;63.90;;;;;;5107651;28;19954;-68
2023/09/16 09:23:30;;;;;;;;;;;20.70;64.00;;;;;;5109516;28;19932;-68
2023/09/16 09:25:56;;;;;;;;;;;20.70;63.90;;;;;;5111444;28;19927;-71
2023/09/16 09:28:22;;;;;;;;;;;20.70;63.90;;;;;;5109378;28;19943;-69
2023/09/16 09:30:48;;;;;;;;;;;20.70;63.90;;;;;;5108688;28;20371;-69
2023/09/16 09:33:15;;;;;;;;;;;20.70;63.90;;;;;;5107755;28;19963;-73
2023/09/16 09:35:40;;;;;;;;;;;20.70;63.90;;;;;;5107931;28;19924;-74
2023/09/16 09:38:06;;;;;;;;;;;20.70;63.90;;;;;;5109167;28;19920;-69
2023/09/16 09:40:31;;;;;;;;;;;20.70;63.80;;;;;;5106415;28;19920;-67
2023/09/16 09:42:59;;;;;;;;;;;20.70;63.90;;;;;;5114555;28;19923;-70
2023/09/16 09:45:25;;;;;;;;;;;20.80;64.00;;;;;;5110573;27;20371;-70
2023/09/16 09:47:51;;;;;;;;;;;20.80;64.00;;;;;;5129149;28;19926;-70
2023/09/16 09:50:18;;;;;;;;;;;20.80;64.00;;;;;;5128847;27;19998;-71
2023/09/16 09:52:45;;;;;;;;;;;20.80;64.00;;;;;;5111364;28;19920;-69
2023/09/16 09:55:11;;;;;;;;;;;20.80;64.00;;;;;;5113561;27;19959;-69
2023/09/16 09:57:36;;;;;;;;;;;20.80;64.00;;;;;;5136301;27;19967;-68
2023/09/16 10:00:02;;;;;;;;;;;20.90;63.90;;;;;;5131631;27;19920;-68
2023/09/16 10:02:29;;;;;;;;;;;20.90;63.80;;;;;;5115539;28;19930;-69
2023/09/16 10:05:02;;;;;;;;;;;21.00;63.90;;;;;;5097230;28;19920;-69
2023/09/16 10:07:29;;;;;;;;;;;21.00;63.80;;;;;;5112504;27;19920;-69
2023/09/16 10:09:55;;;;;;;;;;;21.00;63.70;;;;;;5140505;27;20383;-71
2023/09/16 10:12:21;;;;;;;;;;;21.00;63.70;;;;;;5097151;28;19949;-70
2023/09/16 10:14:47;;;;;;;;;;;21.00;63.30;;;;;;5096946;28;19920;-68
2023/09/16 10:17:13;;;;;;;;;;;21.00;63.40;;;;;;5131403;27;20188;-69
2023/09/16 10:19:38;;;;;;;;;;;21.10;63.40;;;;;;5096781;28;20195;-69
2023/09/16 10:22:04;;;;;;;;;;;21.10;63.40;;;;;;5096937;28;19920;-73
2023/09/16 10:24:29;;;;;;;;;;;21.10;63.30;;;;;;5096087;28;19950;-69
2023/09/16 10:26:55;;;;;;;;;;;21.10;63.30;;;;;;5096784;28;20060;-68
2023/09/16 10:29:20;;;;;;;;;;;21.10;63.20;;;;;;5096149;28;19963;-71
2023/09/16 10:31:46;;;;;;;;;;;21.10;63.20;;;;;;5095253;28;19959;-69
2023/09/16 10:34:12;;;;;;;;;;;21.10;63.10;;;;;;5118391;27;19926;-70
2023/09/16 10:36:38;;;;;;;;;;;21.10;63.20;;;;;;5096579;28;19920;-68
2023/09/16 10:39:03;;;;;;;;;;;21.20;63.10;;;;;;5096583;28;19946;-71
2023/09/16 10:41:29;;;;;;;;;;;21.10;63.10;;;;;;5114781;28;19919;-74
2023/09/16 10:43:57;;;;;;;;;;;21.10;63.20;;;;;;5094627;28;19959;-77
2023/09/16 10:46:23;;;;;;;;;;;21.20;63.20;;;;;;5096277;28;19928;-71
2023/09/16 10:48:51;;;;;;;;;;;21.20;63.20;;;;;;5096361;28;19981;-67
2023/09/16 10:51:20;;;;;;;;;;;21.20;63.20;;;;;;5096316;28;20371;-71
2023/09/16 10:53:47;;;;;;;;;;;21.20;63.20;;;;;;5097239;27;19920;-70
2023/09/16 10:59:07;;;;;;;;;;;21.20;63.20;;;;;;5110170;27;19912;-67
2023/09/16 11:01:34;;;;;;;;;;;21.20;63.10;;;;;;5109263;28;20294;-70
2023/09/16 11:04:06;;;;;;;;;;;21.20;63.00;;;;;;5107621;28;19934;-69
2023/09/16 11:06:32;;;;;;;;;;;21.20;63.10;;;;;;5108151;28;19926;-68
2023/09/16 11:08:57;;;;;;;;;;;21.20;63.10;;;;;;5107942;28;19927;-71
2023/09/16 11:11:23;;;;;;;;;;;21.30;63.40;;;;;;5088269;28;20384;-67
2023/09/16 11:13:49;;;;;;;;;;;21.20;63.10;;;;;;5104761;28;19927;-68
2023/09/16 11:16:15;;;;;;;;;;;21.20;63.10;;;;;;5108732;28;19927;-74
2023/09/16 11:18:42;;;;;;;;;;;21.20;63.20;;;;;;5110365;28;19924;-68
2023/09/16 11:21:08;;;;;;;;;;;21.20;63.20;;;;;;5108636;28;19927;-74
2023/09/16 11:23:35;;;;;;;;;;;21.30;63.30;;;;;;5109518;28;20286;-68
2023/09/16 11:26:02;;;;;;;;;;;21.20;63.10;;;;;;5107935;28;19928;-70
2023/09/16 11:28:28;;;;;;;;;;;21.20;63.30;;;;;;5108726;28;20020;-70
2023/09/16 11:30:55;;;;;;;;;;;21.30;63.30;;;;;;5113406;28;19924;-70
2023/09/16 11:33:30;;;;;;;;;;;21.30;63.40;;;;;;5108058;28;19941;-69
2023/09/16 11:36:05;;;;;;;;;;;21.30;63.30;;;;;;5107190;28;19931;-71
2023/09/16 11:38:30;;;;;;;;;;;21.30;63.30;;;;;;5108135;28;19931;-70
2023/09/16 11:40:56;;;;;;;;;;;21.30;63.40;;;;;;5107853;28;19924;-77
2023/09/16 11:43:21;;;;;;;;;;;21.40;63.60;;;;;;5107675;28;19920;-70
2023/09/16 11:45:47;;;;;;;;;;;21.30;63.40;;;;;;5107806;28;20436;-72
2023/09/16 11:48:12;;;;;;;;;;;21.30;63.50;;;;;;5107543;28;20006;-72
2023/09/16 11:50:38;;;;;;;;;;;21.40;63.40;;;;;;5107830;28;20011;-72
2023/09/16 11:53:03;;;;;;;;;;;21.30;63.30;;;;;;5108302;28;19969;-72
2023/09/16 11:55:29;;;;;;;;;;;21.40;63.40;;;;;;5123184;28;20291;-72
2023/09/16 11:57:54;;;;;;;;;;;21.30;63.30;;;;;;5118228;28;19931;-69
2023/09/16 12:00:20;;;;;;;;;;;21.30;63.30;;;;;;5108841;28;19920;-75
2023/09/16 12:02:45;;;;;;;;;;;21.40;63.50;;;;;;5108316;28;20306;-71
2023/09/16 12:05:11;;;;;;;;;;;21.40;63.50;;;;;;5108038;28;20343;-70
2023/09/16 12:07:37;;;;;;;;;;;21.40;63.50;;;;;;5124502;28;20606;-71
2023/09/16 12:10:03;;;;;;;;;;;21.40;63.50;;;;;;5113416;28;20362;-72
2023/09/16 12:12:29;;;;;;;;;;;21.40;63.30;;;;;;5094058;28;19928;-71
2023/09/16 12:14:56;;;;;;;;;;;21.40;63.40;;;;;;5093491;28;19920;-71
2023/09/16 12:17:23;;;;;;;;;;;21.40;63.50;;;;;;5092845;28;19932;-70
2023/09/16 12:19:49;;;;;;;;;;;21.40;63.40;;;;;;5092740;28;19920;-74
2023/09/16 12:22:15;;;;;;;;;;;21.40;63.30;;;;;;5093893;28;20061;-70
2023/09/16 12:24:41;;;;;;;;;;;21.40;63.50;;;;;;5095084;28;20450;-70
2023/09/16 12:27:06;;;;;;;;;;;21.40;63.60;;;;;;5093277;28;19928;-70
2023/09/16 12:29:32;;;;;;;;;;;21.50;63.60;;;;;;5093573;28;19920;-71
2023/09/16 12:32:14;;;;;;;;;;;21.50;63.60;;;;;;5092930;28;20010;-74
2023/09/16 12:34:40;;;;;;;;;;;21.50;63.60;;;;;;5094139;28;20295;-71
2023/09/16 12:37:06;;;;;;;;;;;21.50;63.50;;;;;;5093694;28;19928;-70
2023/09/16 12:39:33;;;;;;;;;;;21.50;63.60;;;;;;5094787;28;20363;-79
2023/09/16 12:42:00;;;;;;;;;;;21.50;63.40;;;;;;5096395;28;20928;-70
2023/09/16 12:44:26;;;;;;;;;;;21.50;63.50;;;;;;5115137;28;19986;-69
2023/09/16 12:46:51;;;;;;;;;;;21.50;63.40;;;;;;5094073;28;19973;-74
2023/09/16 12:49:18;;;;;;;;;;;21.60;63.50;;;;;;5093118;28;20367;-73
2023/09/16 12:51:43;;;;;;;;;;;21.50;63.40;;;;;;5092449;28;19920;-73
2023/09/16 12:54:09;;;;;;;;;;;21.50;63.40;;;;;;5093019;28;19927;-71
2023/09/16 12:56:35;;;;;;;;;;;21.50;63.40;;;;;;5094417;28;19924;-77
2023/09/16 12:59:02;;;;;;;;;;;21.60;63.50;;;;;;5114182;28;20393;-69
2023/09/16 13:01:29;;;;;;;;;;;21.60;63.60;;;;;;5114262;28;19920;-73
2023/09/16 13:03:55;;;;;;;;;;;21.60;63.70;;;;;;5096337;28;19945;-74
2023/09/16 13:06:21;;;;;;;;;;;21.60;63.60;;;;;;5086894;28;19921;-71
2023/09/16 13:08:47;;;;;;;;;;;21.60;63.50;;;;;;5091094;28;19971;-72
2023/09/16 13:11:13;;;;;;;;;;;21.60;63.40;;;;;;5095788;28;19962;-70
2023/09/16 13:13:39;;;;;;;;;;;21.60;63.50;;;;;;5096348;28;19967;-70
2023/09/16 13:16:05;;;;;;;;;;;21.50;63.50;;;;;;5095619;28;20413;-70
2023/09/16 13:18:30;;;;;;;;;;;21.50;63.50;;;;;;5095284;28;19924;-70
2023/09/16 13:20:56;;;;;;;;;;;21.50;63.50;;;;;;5129202;27;19979;-70
2023/09/16 13:23:25;;;;;;;;;;;21.40;63.70;;;;;;5114451;28;19931;-70
2023/09/16 13:25:51;;;;;;;;;;;21.40;63.70;;;;;;5114153;28;19920;-71
2023/09/16 13:28:18;;;;;;;;;;;21.40;63.80;;;;;;5114239;28;20389;-70
2023/09/16 13:33:44;;;;;;;;;;;21.30;63.80;;;;;;5130891;27;19960;-70
2023/09/16 13:36:10;;;;;;;;;;;21.30;63.90;;;;;;5130612;28;19920;-69
2023/09/16 13:38:35;;;;;;;;;;;21.30;64.00;;;;;;5129397;28;19929;-70
2023/09/16 13:41:00;;;;;;;;;;;21.20;64.00;;;;;;5129366;28;19926;-70
2023/09/16 13:43:26;;;;;;;;;;;21.20;64.00;;;;;;5129603;28;19976;-70
2023/09/16 13:45:51;;;;;;;;;;;21.20;64.00;;;;;;5129631;28;19926;-70
2023/09/16 13:48:18;;;;;;;;;;;21.20;64.10;;;;;;5129483;28;20047;-70
2023/09/16 13:50:45;;;;;;;;;;;21.20;64.10;;;;;;5130527;27;20127;-70
2023/09/16 13:53:11;;;;;;;;;;;21.20;64.10;;;;;;5129104;28;19934;-70
2023/09/16 13:55:38;;;;;;;;;;;21.20;64.20;;;;;;5129371;28;19919;-70
2023/09/16 13:58:04;;;;;;;;;;;21.20;64.20;;;;;;5129312;28;20401;-71
2023/09/16 14:00:30;;;;;;;;;;;21.20;64.30;;;;;;5129297;28;19920;-70
2023/09/16 14:02:56;;;;;;;;;;;21.20;64.30;;;;;;5129225;28;19930;-70
2023/09/16 14:05:22;;;;;;;;;;;21.20;64.30;;;;;;5130242;27;19919;-72
2023/09/16 14:07:48;;;;;;;;;;;21.10;64.20;;;;;;5129021;28;19942;-70
2023/09/16 14:10:13;;;;;;;;;;;21.10;64.20;;;;;;5128885;28;20349;-70
2023/09/16 14:12:39;;;;;;;;;;;21.10;64.30;;;;;;5128791;28;19930;-72
2023/09/16 14:15:04;;;;;;;;;;;21.10;64.30;;;;;;5130080;27;20340;-72
2023/09/16 14:17:30;;;;;;;;;;;21.10;64.30;;;;;;5128522;28;19927;-70
2023/09/16 14:19:55;;;;;;;;;;;21.10;64.30;;;;;;5163565;27;19931;-70